Tropical Cyclones
[Index]
Main Index Home Page Stock Weather Photos Extreme Storms Discussion Storm News and Storm Chasing Reports Tropical Cyclones / Hurricanes / Typhoons Weather Data and Links Wild Fires / Bushfires Weather Observation Techniques Weather Picture Catalogue Tornado Pictures and Reports Stock Video Footage and DVDs for sale
Season 1964-1965 Tropical Cyclone 196534 Track Map
Season 1964-1965 Summaries: [BoM-AU] [JTWC-AU] [JTWC-SIO] [JTWC-SPAC] [JTWC-SH]
<<- Previous TC | JTWC 1964-1965 Season | Next TC ->>

click for intensity scale information  Lat/long Grid: Show Hide

 Date Labels: Show Hide

Joint Typhoon Warning Centre Cyclone Data

Name: 196534
Number: 571 / 6534

25 Feb 1965 12:00 UTC to 07 Mar 1965 00:00 UTC

    date/time    lat    long     hPa   cat  kts
1965-02-25 12   17.0    81.0                  15          
1965-02-25 18   17.2    80.8                  15          
1965-02-26 00   17.5    80.5                  15          
1965-02-26 06   17.7    80.3                  15          
1965-02-26 12   18.0    80.0                  15          
1965-02-26 18   18.2    79.5                  15          
1965-02-27 00   18.0    79.0                  15          
1965-02-27 06   17.5    78.5                  15          
1965-02-27 12   17.0    78.0                  20          
1965-02-27 18   16.5    77.5                  20          
1965-02-28 00   16.0    77.0                  20          
1965-02-28 06   15.5    76.9                  25          
1965-02-28 12   15.0    77.0                  25          
1965-02-28 18   14.8    76.6                  25          
1965-03-01 00   15.0    76.0                  25          
1965-03-01 06   15.2    75.0                  25          
1965-03-01 12   15.4    74.0                  25          
1965-03-01 18   15.6    73.4                  25          
1965-03-02 00   15.9    73.0                  25          
1965-03-02 06   16.1    73.1                  25          
1965-03-02 12   16.2    73.0                  25          
1965-03-02 18   16.4    72.5                  25          
1965-03-03 00   17.0    72.0                  20          
1965-03-03 06   18.0    71.5                  20          
1965-03-03 12   19.0    71.0                  20          
1965-03-03 18   20.0    70.4                  20          
1965-03-04 00   21.0    70.0                  15          
1965-03-04 06   22.1    69.9                  15          
1965-03-04 12   23.0    70.0                  15          
1965-03-04 18   23.6    70.0                              
1965-03-05 00   24.0    70.0                              
1965-03-05 06   24.5    70.0                              
1965-03-05 12   25.0    70.0                              
1965-03-05 18   25.5    70.0                              
1965-03-06 00   26.0    70.0                              
1965-03-06 06   26.5    70.0                              
1965-03-06 12   27.0    70.0                              
1965-03-06 18   27.2    70.0                              
1965-03-07 00   27.0    70.0                              
Winds are 1-min average.

Tropical cyclone tracks developed by Michael Bath using data from the Joint Typhoon Warning Centre Best Tracks and Google Maps.


[Australian Severe Weather index] [Copyright Notice] [Email Contacts] [Search This Site] [Privacy Policy]
Document: tropical_cyclone_196534.htm Updated: 18 September 2016